sensor_id;sensor_type;location;lat;lon;timestamp;temperature;humidity
66576;SHT31;53428;47.686;16.584;2022-12-05T00:00:41;4.19;99.99
66576;SHT31;53428;47.686;16.584;2022-12-05T00:05:40;4.15;99.99
66576;SHT31;53428;47.686;16.584;2022-12-05T00:10:40;4.09;99.99
66576;SHT31;53428;47.686;16.584;2022-12-05T00:15:43;4.06;99.99
66576;SHT31;53428;47.686;16.584;2022-12-05T00:20:44;4.03;99.99
66576;SHT31;53428;47.686;16.584;2022-12-05T00:25:44;3.99;99.99
66576;SHT31;53428;47.686;16.584;2022-12-05T00:30:43;3.94;99.99
66576;SHT31;53428;47.686;16.584;2022-12-05T00:35:42;3.79;99.99
66576;SHT31;53428;47.686;16.584;2022-12-05T00:40:42;3.77;99.99
66576;SHT31;53428;47.686;16.584;2022-12-05T00:45:41;3.66;99.99
66576;SHT31;53428;47.686;16.584;2022-12-05T00:50:41;3.63;99.99
66576;SHT31;53428;47.686;16.584;2022-12-05T00:55:40;3.50;99.99
66576;SHT31;53428;47.686;16.584;2022-12-05T01:00:39;3.39;99.99
66576;SHT31;53428;47.686;16.584;2022-12-05T01:05:39;3.33;99.99
66576;SHT31;53428;47.686;16.584;2022-12-05T01:10:38;3.27;99.99
66576;SHT31;53428;47.686;16.584;2022-12-05T01:15:37;3.20;99.99
66576;SHT31;53428;47.686;16.584;2022-12-05T01:20:40;3.09;99.99
66576;SHT31;53428;47.686;16.584;2022-12-05T01:25:41;3.12;99.99
66576;SHT31;53428;47.686;16.584;2022-12-05T01:30:43;3.09;99.99
66576;SHT31;53428;47.686;16.584;2022-12-05T01:35:43;3.09;99.99
66576;SHT31;53428;47.686;16.584;2022-12-05T01:40:43;3.18;99.99
66576;SHT31;53428;47.686;16.584;2022-12-05T01:45:44;3.13;99.99
66576;SHT31;53428;47.686;16.584;2022-12-05T01:50:45;3.05;99.99
66576;SHT31;53428;47.686;16.584;2022-12-05T01:55:47;2.98;99.99
66576;SHT31;53428;47.686;16.584;2022-12-05T02:00:47;2.99;99.99
66576;SHT31;53428;47.686;16.584;2022-12-05T02:05:49;2.99;99.99
66576;SHT31;53428;47.686;16.584;2022-12-05T02:10:52;2.95;99.99
66576;SHT31;53428;47.686;16.584;2022-12-05T02:21:44;2.96;99.99
66576;SHT31;53428;47.686;16.584;2022-12-05T02:33:01;2.87;99.99
66576;SHT31;53428;47.686;16.584;2022-12-05T02:37:39;2.75;99.99
66576;SHT31;53428;47.686;16.584;2022-12-05T02:43:00;2.79;99.99
66576;SHT31;53428;47.686;16.584;2022-12-05T02:48:00;2.72;99.99
66576;SHT31;53428;47.686;16.584;2022-12-05T02:53:04;2.85;99.99
66576;SHT31;53428;47.686;16.584;2022-12-05T02:58:10;2.75;99.99
66576;SHT31;53428;47.686;16.584;2022-12-05T03:03:13;2.64;99.99
66576;SHT31;53428;47.686;16.584;2022-12-05T03:08:17;2.74;99.99
66576;SHT31;53428;47.686;16.584;2022-12-05T03:13:26;2.64;99.99
66576;SHT31;53428;47.686;16.584;2022-12-05T03:18:30;2.58;99.99
66576;SHT31;53428;47.686;16.584;2022-12-05T03:23:37;2.57;99.99
66576;SHT31;53428;47.686;16.584;2022-12-05T03:34:07;2.66;99.99
66576;SHT31;53428;47.686;16.584;2022-12-05T03:39:28;2.71;99.99
66576;SHT31;53428;47.686;16.584;2022-12-05T03:44:35;2.82;99.99
66576;SHT31;53428;47.686;16.584;2022-12-05T03:49:44;2.95;99.99
66576;SHT31;53428;47.686;16.584;2022-12-05T03:54:50;2.89;99.99
66576;SHT31;53428;47.686;16.584;2022-12-05T04:00:13;2.98;99.99
66576;SHT31;53428;47.686;16.584;2022-12-05T04:05:33;2.96;99.99
66576;SHT31;53428;47.686;16.584;2022-12-05T04:10:36;3.02;99.99
66576;SHT31;53428;47.686;16.584;2022-12-05T04:15:55;3.10;99.99
66576;SHT31;53428;47.686;16.584;2022-12-05T04:21:16;3.24;99.99
66576;SHT31;53428;47.686;16.584;2022-12-05T04:26:35;3.27;99.99
66576;SHT31;53428;47.686;16.584;2022-12-05T04:31:47;3.29;99.99
66576;SHT31;53428;47.686;16.584;2022-12-05T04:36:56;3.37;99.99
66576;SHT31;53428;47.686;16.584;2022-12-05T04:42:01;3.47;99.99
66576;SHT31;53428;47.686;16.584;2022-12-05T04:47:03;3.48;99.99
66576;SHT31;53428;47.686;16.584;2022-12-05T04:52:07;3.47;99.99
66576;SHT31;53428;47.686;16.584;2022-12-05T04:57:25;3.50;99.99
66576;SHT31;53428;47.686;16.584;2022-12-05T05:02:39;3.51;99.99
66576;SHT31;53428;47.686;16.584;2022-12-05T05:07:58;3.46;99.99
66576;SHT31;53428;47.686;16.584;2022-12-05T05:12:58;3.54;99.99
66576;SHT31;53428;47.686;16.584;2022-12-05T05:17:58;3.53;99.99
66576;SHT31;53428;47.686;16.584;2022-12-05T05:22:57;3.58;99.80
66576;SHT31;53428;47.686;16.584;2022-12-05T05:27:56;3.77;99.94
66576;SHT31;53428;47.686;16.584;2022-12-05T05:32:58;3.68;99.42
66576;SHT31;53428;47.686;16.584;2022-12-05T05:37:57;3.67;99.99
66576;SHT31;53428;47.686;16.584;2022-12-05T05:42:56;3.67;99.85
66576;SHT31;53428;47.686;16.584;2022-12-05T05:47:55;3.63;99.99
66576;SHT31;53428;47.686;16.584;2022-12-05T05:52:55;3.64;99.99
66576;SHT31;53428;47.686;16.584;2022-12-05T05:57:54;3.66;99.99
66576;SHT31;53428;47.686;16.584;2022-12-05T06:02:53;3.57;99.99
66576;SHT31;53428;47.686;16.584;2022-12-05T06:07:52;3.63;99.99
66576;SHT31;53428;47.686;16.584;2022-12-05T06:12:51;3.63;99.99
66576;SHT31;53428;47.686;16.584;2022-12-05T06:17:51;3.68;99.99
66576;SHT31;53428;47.686;16.584;2022-12-05T06:22:50;3.74;99.99
66576;SHT31;53428;47.686;16.584;2022-12-05T06:27:49;3.75;99.99
66576;SHT31;53428;47.686;16.584;2022-12-05T06:32:48;3.77;99.99
66576;SHT31;53428;47.686;16.584;2022-12-05T06:37:47;3.84;99.99
66576;SHT31;53428;47.686;16.584;2022-12-05T06:42:47;3.82;99.99
66576;SHT31;53428;47.686;16.584;2022-12-05T06:47:46;3.85;99.86
66576;SHT31;53428;47.686;16.584;2022-12-05T06:52:45;3.82;99.82
66576;SHT31;53428;47.686;16.584;2022-12-05T06:57:44;3.88;99.68
66576;SHT31;53428;47.686;16.584;2022-12-05T07:02:43;3.89;99.66
66576;SHT31;53428;47.686;16.584;2022-12-05T07:07:43;3.95;99.19
66576;SHT31;53428;47.686;16.584;2022-12-05T07:12:42;4.09;98.69
66576;SHT31;53428;47.686;16.584;2022-12-05T07:17:41;4.05;98.84
66576;SHT31;53428;47.686;16.584;2022-12-05T07:22:40;4.17;98.48
66576;SHT31;53428;47.686;16.584;2022-12-05T07:27:40;4.17;98.22
66576;SHT31;53428;47.686;16.584;2022-12-05T07:32:39;4.17;98.30
66576;SHT31;53428;47.686;16.584;2022-12-05T07:37:39;4.22;98.39
66576;SHT31;53428;47.686;16.584;2022-12-05T07:42:38;4.26;98.00
66576;SHT31;53428;47.686;16.584;2022-12-05T07:47:37;4.17;98.54
66576;SHT31;53428;47.686;16.584;2022-12-05T07:52:36;4.22;98.29
66576;SHT31;53428;47.686;16.584;2022-12-05T07:57:36;4.29;97.96
66576;SHT31;53428;47.686;16.584;2022-12-05T08:02:35;4.39;97.93
66576;SHT31;53428;47.686;16.584;2022-12-05T08:07:34;4.32;98.31
66576;SHT31;53428;47.686;16.584;2022-12-05T08:12:33;4.46;97.79
66576;SHT31;53428;47.686;16.584;2022-12-05T08:17:32;4.56;96.82
66576;SHT31;53428;47.686;16.584;2022-12-05T08:22:31;4.57;97.77
66576;SHT31;53428;47.686;16.584;2022-12-05T08:27:30;4.68;97.66
66576;SHT31;53428;47.686;16.584;2022-12-05T08:32:30;4.70;97.23
66576;SHT31;53428;47.686;16.584;2022-12-05T08:37:29;4.68;97.49
66576;SHT31;53428;47.686;16.584;2022-12-05T08:42:28;4.89;97.28
66576;SHT31;53428;47.686;16.584;2022-12-05T08:47:27;4.84;96.73
66576;SHT31;53428;47.686;16.584;2022-12-05T08:52:26;4.87;97.30
66576;SHT31;53428;47.686;16.584;2022-12-05T08:57:26;4.70;97.01
66576;SHT31;53428;47.686;16.584;2022-12-05T09:02:25;4.67;97.58
66576;SHT31;53428;47.686;16.584;2022-12-05T09:07:25;4.83;97.47
66576;SHT31;53428;47.686;16.584;2022-12-05T09:12:24;4.83;97.48
66576;SHT31;53428;47.686;16.584;2022-12-05T09:17:24;5.01;97.32
66576;SHT31;53428;47.686;16.584;2022-12-05T09:22:24;5.05;96.98
66576;SHT31;53428;47.686;16.584;2022-12-05T09:27:23;5.15;96.60
66576;SHT31;53428;47.686;16.584;2022-12-05T09:32:22;5.33;96.36
66576;SHT31;53428;47.686;16.584;2022-12-05T09:37:22;5.07;97.64
66576;SHT31;53428;47.686;16.584;2022-12-05T09:42:42;5.29;96.82
66576;SHT31;53428;47.686;16.584;2022-12-05T09:47:59;5.42;95.87
66576;SHT31;53428;47.686;16.584;2022-12-05T09:58:02;5.53;94.67
66576;SHT31;53428;47.686;16.584;2022-12-05T10:03:24;5.36;95.49
66576;SHT31;53428;47.686;16.584;2022-12-05T10:14:07;5.52;95.39
66576;SHT31;53428;47.686;16.584;2022-12-05T10:19:26;5.56;95.55
66576;SHT31;53428;47.686;16.584;2022-12-05T10:24:39;5.66;95.24
66576;SHT31;53428;47.686;16.584;2022-12-05T10:29:44;5.63;95.96
66576;SHT31;53428;47.686;16.584;2022-12-05T10:34:50;5.90;94.40
66576;SHT31;53428;47.686;16.584;2022-12-05T10:39:54;6.25;93.17
66576;SHT31;53428;47.686;16.584;2022-12-05T10:45:01;6.67;92.44
66576;SHT31;53428;47.686;16.584;2022-12-05T10:50:18;7.35;90.48
66576;SHT31;53428;47.686;16.584;2022-12-05T10:55:19;7.45;90.11
66576;SHT31;53428;47.686;16.584;2022-12-05T11:00:21;6.88;90.79
66576;SHT31;53428;47.686;16.584;2022-12-05T11:05:29;6.88;90.93
66576;SHT31;53428;47.686;16.584;2022-12-05T11:10:34;6.87;91.04
66576;SHT31;53428;47.686;16.584;2022-12-05T11:15:43;7.18;90.60
66576;SHT31;53428;47.686;16.584;2022-12-05T11:20:43;7.21;90.06
66576;SHT31;53428;47.686;16.584;2022-12-05T11:25:43;7.07;91.75
66576;SHT31;53428;47.686;16.584;2022-12-05T11:36:13;6.86;92.45
66576;SHT31;53428;47.686;16.584;2022-12-05T11:52:34;6.54;93.09
66576;SHT31;53428;47.686;16.584;2022-12-05T12:08:28;6.24;94.10
66576;SHT31;53428;47.686;16.584;2022-12-05T12:35:28;6.02;95.47
66576;SHT31;53428;47.686;16.584;2022-12-05T12:46:13;5.87;95.74
66576;SHT31;53428;47.686;16.584;2022-12-05T12:51:13;5.78;96.36
66576;SHT31;53428;47.686;16.584;2022-12-05T12:56:19;5.77;96.23
66576;SHT31;53428;47.686;16.584;2022-12-05T13:06:57;5.83;95.83
66576;SHT31;53428;47.686;16.584;2022-12-05T13:12:03;5.78;95.86
66576;SHT31;53428;47.686;16.584;2022-12-05T13:17:05;5.67;96.61
66576;SHT31;53428;47.686;16.584;2022-12-05T13:22:07;5.64;96.57
66576;SHT31;53428;47.686;16.584;2022-12-05T13:27:08;5.73;96.59
66576;SHT31;53428;47.686;16.584;2022-12-05T13:32:37;5.81;96.53
66576;SHT31;53428;47.686;16.584;2022-12-05T13:37:46;5.75;96.33
66576;SHT31;53428;47.686;16.584;2022-12-05T13:43:04;5.78;96.36
66576;SHT31;53428;47.686;16.584;2022-12-05T13:48:20;5.56;97.06
66576;SHT31;53428;47.686;16.584;2022-12-05T13:53:38;5.75;96.57
66576;SHT31;53428;47.686;16.584;2022-12-05T13:58:55;5.52;97.22
66576;SHT31;53428;47.686;16.584;2022-12-05T14:04:00;5.54;97.34
66576;SHT31;53428;47.686;16.584;2022-12-05T14:15:00;5.52;97.33
66576;SHT31;53428;47.686;16.584;2022-12-05T14:30:39;5.16;98.60
66576;SHT31;53428;47.686;16.584;2022-12-05T14:35:46;5.18;98.52
66576;SHT31;53428;47.686;16.584;2022-12-05T14:40:47;5.26;98.55
66576;SHT31;53428;47.686;16.584;2022-12-05T14:50:53;5.13;98.94
66576;SHT31;53428;47.686;16.584;2022-12-05T15:01:04;5.13;98.73
66576;SHT31;53428;47.686;16.584;2022-12-05T15:06:09;5.15;99.28
66576;SHT31;53428;47.686;16.584;2022-12-05T15:11:15;4.96;99.99
66576;SHT31;53428;47.686;16.584;2022-12-05T15:16:26;5.02;99.75
66576;SHT31;53428;47.686;16.584;2022-12-05T15:21:32;5.08;99.71
66576;SHT31;53428;47.686;16.584;2022-12-05T15:26:39;5.01;99.83
66576;SHT31;53428;47.686;16.584;2022-12-05T15:31:47;5.07;99.93
66576;SHT31;53428;47.686;16.584;2022-12-05T15:36:51;5.22;99.42
66576;SHT31;53428;47.686;16.584;2022-12-05T15:41:54;5.11;99.39
66576;SHT31;53428;47.686;16.584;2022-12-05T15:46:55;5.19;99.12
66576;SHT31;53428;47.686;16.584;2022-12-05T15:52:13;5.19;99.56
66576;SHT31;53428;47.686;16.584;2022-12-05T15:57:20;5.19;99.07
66576;SHT31;53428;47.686;16.584;2022-12-05T16:02:40;5.09;99.90
66576;SHT31;53428;47.686;16.584;2022-12-05T16:07:43;5.16;99.52
66576;SHT31;53428;47.686;16.584;2022-12-05T16:12:42;5.12;99.67
66576;SHT31;53428;47.686;16.584;2022-12-05T16:17:46;5.21;99.23
66576;SHT31;53428;47.686;16.584;2022-12-05T16:22:46;5.15;99.15
66576;SHT31;53428;47.686;16.584;2022-12-05T16:28:21;5.12;98.85
66576;SHT31;53428;47.686;16.584;2022-12-05T16:33:21;5.15;99.00
66576;SHT31;53428;47.686;16.584;2022-12-05T16:38:25;5.07;99.42
66576;SHT31;53428;47.686;16.584;2022-12-05T16:43:42;5.01;99.77
66576;SHT31;53428;47.686;16.584;2022-12-05T16:48:43;4.98;99.99
66576;SHT31;53428;47.686;16.584;2022-12-05T16:53:53;4.96;99.99
66576;SHT31;53428;47.686;16.584;2022-12-05T16:58:52;4.96;99.99
66576;SHT31;53428;47.686;16.584;2022-12-05T17:03:52;4.83;99.99
66576;SHT31;53428;47.686;16.584;2022-12-05T17:08:54;4.63;99.99
66576;SHT31;53428;47.686;16.584;2022-12-05T17:13:54;4.37;99.99
66576;SHT31;53428;47.686;16.584;2022-12-05T17:18:54;4.40;99.99
66576;SHT31;53428;47.686;16.584;2022-12-05T17:23:53;4.37;99.99
66576;SHT31;53428;47.686;16.584;2022-12-05T17:28:53;4.32;99.99
66576;SHT31;53428;47.686;16.584;2022-12-05T17:33:53;4.23;99.99
66576;SHT31;53428;47.686;16.584;2022-12-05T17:38:52;4.29;99.99
66576;SHT31;53428;47.686;16.584;2022-12-05T17:43:51;4.43;99.99
66576;SHT31;53428;47.686;16.584;2022-12-05T17:48:51;4.46;99.99
66576;SHT31;53428;47.686;16.584;2022-12-05T17:53:50;4.40;99.99
66576;SHT31;53428;47.686;16.584;2022-12-05T17:58:50;4.40;99.99
66576;SHT31;53428;47.686;16.584;2022-12-05T18:03:50;4.30;99.99
66576;SHT31;53428;47.686;16.584;2022-12-05T18:08:49;4.30;99.99
66576;SHT31;53428;47.686;16.584;2022-12-05T18:13:49;4.33;99.99
66576;SHT31;53428;47.686;16.584;2022-12-05T18:18:48;4.30;99.99
66576;SHT31;53428;47.686;16.584;2022-12-05T18:23:48;4.35;99.99
66576;SHT31;53428;47.686;16.584;2022-12-05T18:28:47;4.35;99.99
66576;SHT31;53428;47.686;16.584;2022-12-05T18:33:46;4.28;99.99
66576;SHT31;53428;47.686;16.584;2022-12-05T18:38:53;4.30;99.99
66576;SHT31;53428;47.686;16.584;2022-12-05T18:43:53;4.32;99.99
66576;SHT31;53428;47.686;16.584;2022-12-05T18:48:53;4.35;99.99
66576;SHT31;53428;47.686;16.584;2022-12-05T18:53:52;4.33;99.99
66576;SHT31;53428;47.686;16.584;2022-12-05T18:59:03;4.28;99.99
66576;SHT31;53428;47.686;16.584;2022-12-05T19:04:03;4.32;99.99
66576;SHT31;53428;47.686;16.584;2022-12-05T19:09:10;4.19;99.99
66576;SHT31;53428;47.686;16.584;2022-12-05T19:14:10;4.30;99.99
66576;SHT31;53428;47.686;16.584;2022-12-05T19:19:12;4.37;99.99
66576;SHT31;53428;47.686;16.584;2022-12-05T19:24:14;4.33;99.99
66576;SHT31;53428;47.686;16.584;2022-12-05T19:29:14;4.30;99.99
66576;SHT31;53428;47.686;16.584;2022-12-05T19:34:14;4.29;99.99
66576;SHT31;53428;47.686;16.584;2022-12-05T19:39:16;4.32;99.99
66576;SHT31;53428;47.686;16.584;2022-12-05T19:44:15;4.28;99.99
66576;SHT31;53428;47.686;16.584;2022-12-05T19:49:15;4.30;99.99
66576;SHT31;53428;47.686;16.584;2022-12-05T19:54:18;4.20;99.99
66576;SHT31;53428;47.686;16.584;2022-12-05T19:59:18;4.29;99.99
66576;SHT31;53428;47.686;16.584;2022-12-05T20:04:19;4.25;99.99
66576;SHT31;53428;47.686;16.584;2022-12-05T20:09:20;4.26;99.99
66576;SHT31;53428;47.686;16.584;2022-12-05T20:14:21;4.28;99.99
66576;SHT31;53428;47.686;16.584;2022-12-05T20:19:25;4.26;99.99
66576;SHT31;53428;47.686;16.584;2022-12-05T20:24:24;4.20;99.99
66576;SHT31;53428;47.686;16.584;2022-12-05T20:29:23;4.20;99.99
66576;SHT31;53428;47.686;16.584;2022-12-05T20:34:23;4.25;99.99
66576;SHT31;53428;47.686;16.584;2022-12-05T20:39:22;4.20;99.99
66576;SHT31;53428;47.686;16.584;2022-12-05T20:44:22;4.12;99.99
66576;SHT31;53428;47.686;16.584;2022-12-05T20:49:22;4.16;99.99
66576;SHT31;53428;47.686;16.584;2022-12-05T20:54:21;4.25;99.99
66576;SHT31;53428;47.686;16.584;2022-12-05T20:59:20;4.25;99.99
66576;SHT31;53428;47.686;16.584;2022-12-05T21:04:19;4.19;99.99
66576;SHT31;53428;47.686;16.584;2022-12-05T21:09:19;4.17;99.99
66576;SHT31;53428;47.686;16.584;2022-12-05T21:14:26;4.19;99.99
66576;SHT31;53428;47.686;16.584;2022-12-05T21:19:28;4.19;99.99
66576;SHT31;53428;47.686;16.584;2022-12-05T21:24:28;4.25;99.99
66576;SHT31;53428;47.686;16.584;2022-12-05T21:29:27;4.23;99.99
66576;SHT31;53428;47.686;16.584;2022-12-05T21:34:27;4.22;99.99
66576;SHT31;53428;47.686;16.584;2022-12-05T21:39:26;4.23;99.99
66576;SHT31;53428;47.686;16.584;2022-12-05T21:44:25;4.23;99.99
66576;SHT31;53428;47.686;16.584;2022-12-05T21:49:25;4.23;99.99
66576;SHT31;53428;47.686;16.584;2022-12-05T21:54:24;4.10;99.99
66576;SHT31;53428;47.686;16.584;2022-12-05T21:59:23;4.13;99.99
66576;SHT31;53428;47.686;16.584;2022-12-05T22:04:23;4.13;99.99
66576;SHT31;53428;47.686;16.584;2022-12-05T22:09:22;4.15;99.99
66576;SHT31;53428;47.686;16.584;2022-12-05T22:14:22;4.15;99.99
66576;SHT31;53428;47.686;16.584;2022-12-05T22:19:21;4.08;99.99
66576;SHT31;53428;47.686;16.584;2022-12-05T22:24:20;4.15;99.99
66576;SHT31;53428;47.686;16.584;2022-12-05T22:29:19;4.20;99.99
66576;SHT31;53428;47.686;16.584;2022-12-05T22:34:18;4.15;99.99
66576;SHT31;53428;47.686;16.584;2022-12-05T22:39:18;4.10;99.99
66576;SHT31;53428;47.686;16.584;2022-12-05T22:44:17;4.19;99.99
66576;SHT31;53428;47.686;16.584;2022-12-05T22:49:16;4.16;99.99
66576;SHT31;53428;47.686;16.584;2022-12-05T22:54:16;4.17;99.99
66576;SHT31;53428;47.686;16.584;2022-12-05T22:59:15;4.03;99.99
66576;SHT31;53428;47.686;16.584;2022-12-05T23:04:14;4.05;99.99
66576;SHT31;53428;47.686;16.584;2022-12-05T23:09:14;4.03;99.99
66576;SHT31;53428;47.686;16.584;2022-12-05T23:14:13;4.03;99.99
66576;SHT31;53428;47.686;16.584;2022-12-05T23:19:12;4.03;99.99
66576;SHT31;53428;47.686;16.584;2022-12-05T23:24:11;3.95;99.99
66576;SHT31;53428;47.686;16.584;2022-12-05T23:29:12;3.92;99.99
66576;SHT31;53428;47.686;16.584;2022-12-05T23:34:11;3.85;99.99
66576;SHT31;53428;47.686;16.584;2022-12-05T23:39:10;3.70;99.99
66576;SHT31;53428;47.686;16.584;2022-12-05T23:44:10;3.63;99.99
66576;SHT31;53428;47.686;16.584;2022-12-05T23:54:09;3.58;99.99
66576;SHT31;53428;47.686;16.584;2022-12-05T23:59:08;3.48;99.99
